Time;durP1;ratioP1;P1;durP2;ratioP2;P2;SDS_P1;SDS_P2;PMS_P1;PMS_P2;Temp;Humidity;BMP_temperature;BMP_pressure;BME280_temperature;BME280_humidity;BME280_pressure;Samples;Min_cycle;Max_cycle;Signal;HPM_P1;HPM_P2
2022/05/17 00:02:48;;;;;;;3.33;2.70;;;14.30;99.90;15.60;97033.00;;;;5032305;28;20232;-63
2022/05/17 00:05:37;;;;;;;7.40;2.63;;;14.30;99.90;15.50;97041.00;;;;5032461;28;20217;-63
2022/05/17 00:08:26;;;;;;;4.33;2.70;;;14.40;99.90;15.50;97030.00;;;;5032415;28;20208;-64
2022/05/17 00:11:15;;;;;;;3.13;2.83;;;14.40;99.90;15.70;97029.00;;;;5032262;28;20205;-63
2022/05/17 00:14:04;;;;;;;2.40;2.20;;;14.40;99.90;15.60;97037.00;;;;5031314;28;20209;-63
2022/05/17 00:16:53;;;;;;;7.43;3.30;;;14.40;99.90;15.40;97033.00;;;;5031791;28;20225;-64
2022/05/17 00:19:44;;;;;;;3.10;2.80;;;14.40;99.90;15.40;97027.00;;;;5018494;28;20209;-63
2022/05/17 00:22:32;;;;;;;4.20;2.83;;;14.40;99.90;15.60;97033.00;;;;5015151;28;20229;-63
2022/05/17 00:25:23;;;;;;;6.67;2.93;;;14.40;99.90;15.70;97032.00;;;;5030042;28;20205;-63
2022/05/17 00:28:13;;;;;;;6.00;3.10;;;14.40;99.90;15.80;97039.00;;;;5031221;28;20205;-64
2022/05/17 00:31:02;;;;;;;7.73;3.23;;;14.50;99.90;15.60;97034.00;;;;5032068;28;20201;-63
2022/05/17 00:33:51;;;;;;;4.67;2.90;;;14.50;99.90;15.40;97040.00;;;;5011883;28;20213;-63
2022/05/17 00:36:43;;;;;;;3.83;2.80;;;14.50;99.90;15.40;97037.00;;;;5027536;28;20307;-64
2022/05/17 00:39:32;;;;;;;3.50;3.20;;;14.50;99.90;15.30;97036.00;;;;5019476;28;20205;-64
2022/05/17 00:42:21;;;;;;;5.50;2.40;;;14.40;99.90;15.20;97032.00;;;;5021940;28;20225;-64
2022/05/17 00:45:11;;;;;;;6.73;3.13;;;14.40;99.90;15.30;97032.00;;;;5031747;28;20208;-64
2022/05/17 00:48:05;;;;;;;3.47;2.23;;;14.40;99.90;15.30;97027.00;;;;5030959;28;20592;-64
2022/05/17 00:50:56;;;;;;;4.30;3.17;;;14.30;99.90;15.40;97027.00;;;;5031550;28;20220;-64
2022/05/17 00:53:47;;;;;;;7.27;3.10;;;14.30;99.90;15.40;97020.00;;;;5009156;28;20217;-64
2022/05/17 00:56:40;;;;;;;5.40;3.30;;;14.40;99.90;15.60;97017.00;;;;5030539;28;20225;-63
2022/05/17 00:59:30;;;;;;;4.30;2.93;;;14.40;99.90;15.60;97022.00;;;;5031934;28;20198;-64
2022/05/17 01:02:19;;;;;;;4.50;2.90;;;14.40;99.90;15.40;97008.00;;;;5031800;28;20236;-64
2022/05/17 01:05:09;;;;;;;6.50;2.37;;;14.40;99.90;15.40;97013.00;;;;5031556;28;20214;-63
2022/05/17 01:08:00;;;;;;;4.30;3.07;;;14.40;99.90;15.70;97013.00;;;;5030424;28;20213;-64
2022/05/17 01:10:50;;;;;;;11.13;3.00;;;14.40;99.90;15.80;97005.00;;;;5031378;28;20216;-64
2022/05/17 01:16:46;;;;;;;4.90;3.00;;;14.60;99.90;15.70;97000.00;;;;5013193;28;20221;-64
2022/05/17 01:19:34;;;;;;;4.20;2.43;;;14.60;99.90;15.50;96989.00;;;;5005624;28;20684;-64
2022/05/17 01:22:25;;;;;;;10.60;2.77;;;14.50;99.90;15.40;97002.00;;;;5000049;28;20217;-63
2022/05/17 01:25:13;;;;;;;5.10;2.73;;;14.50;99.90;15.60;96989.00;;;;5007318;28;20205;-63
2022/05/17 01:28:09;;;;;;;5.30;2.60;;;14.50;99.90;15.60;96998.00;;;;5005226;28;20209;-63
2022/05/17 01:31:03;;;;;;;5.10;3.00;;;14.50;99.90;15.30;96987.00;;;;5030069;28;20613;-64
2022/05/17 01:33:52;;;;;;;6.77;2.83;;;14.50;99.90;15.40;96989.00;;;;5014832;28;20202;-63
2022/05/17 01:36:42;;;;;;;10.20;3.37;;;14.50;99.90;15.30;96989.00;;;;5002266;28;20728;-64
2022/05/17 01:39:33;;;;;;;2.90;2.23;;;14.40;99.90;15.50;97000.00;;;;5009155;28;20212;-63
2022/05/17 01:42:21;;;;;;;5.50;2.47;;;14.50;99.90;15.60;96990.00;;;;5016929;28;20197;-63
2022/05/17 01:45:11;;;;;;;3.20;2.27;;;14.50;99.90;15.80;96991.00;;;;4995961;28;20217;-63
2022/05/17 01:48:01;;;;;;;6.40;2.40;;;14.50;99.90;15.60;96991.00;;;;5029323;28;20209;-63
2022/05/17 01:50:49;;;;;;;5.80;3.90;;;14.50;99.90;15.70;97000.00;;;;5030758;28;20205;-64
2022/05/17 01:53:38;;;;;;;4.47;2.80;;;14.60;99.90;15.60;96986.00;;;;5030600;28;20224;-63
2022/05/17 01:56:29;;;;;;;5.57;3.00;;;15.00;99.90;15.40;96989.00;;;;5031094;28;20224;-63
2022/05/17 01:59:18;;;;;;;5.10;3.40;;;14.50;99.90;15.50;96984.00;;;;5013057;28;20205;-63
2022/05/17 02:02:06;;;;;;;3.63;3.17;;;14.50;99.90;15.50;96991.00;;;;5001813;28;20209;-63
2022/05/17 02:04:55;;;;;;;6.07;2.87;;;14.50;99.90;15.60;96980.00;;;;5027647;28;20204;-63
2022/05/17 02:07:44;;;;;;;4.97;2.83;;;14.50;99.90;15.60;96978.00;;;;5029173;28;20205;-64
2022/05/17 02:10:33;;;;;;;3.43;2.60;;;14.50;99.90;15.80;96973.00;;;;5030195;28;20206;-64
2022/05/17 02:13:23;;;;;;;4.83;2.63;;;14.50;99.90;16.00;96972.00;;;;5029091;28;20197;-63
2022/05/17 02:16:13;;;;;;;4.57;2.57;;;14.60;99.90;15.90;96983.00;;;;5029690;28;20225;-64
2022/05/17 02:19:06;;;;;;;4.83;2.40;;;14.60;99.90;15.70;96973.00;;;;5020371;28;20217;-64
2022/05/17 02:21:55;;;;;;;5.27;2.80;;;14.60;99.90;15.70;96967.00;;;;5011121;28;20210;-63
2022/05/17 02:24:45;;;;;;;2.43;2.23;;;14.60;99.90;15.40;96964.00;;;;5022698;28;20225;-62
2022/05/17 02:27:34;;;;;;;2.80;2.47;;;14.60;99.90;15.30;96968.00;;;;5029834;28;20219;-63
2022/05/17 02:30:24;;;;;;;4.77;2.40;;;14.50;99.90;15.30;96967.00;;;;5030224;28;20205;-63
2022/05/17 02:33:15;;;;;;;4.00;2.27;;;14.40;99.90;15.40;96978.00;;;;5015618;28;20796;-63
2022/05/17 02:36:04;;;;;;;2.93;2.40;;;14.40;99.90;14.90;96964.00;;;;5024448;28;20217;-63
2022/05/17 02:38:53;;;;;;;4.03;2.83;;;14.30;99.90;14.80;96973.00;;;;5029247;28;20206;-63
2022/05/17 02:41:42;;;;;;;3.07;2.67;;;14.20;99.90;14.60;96962.00;;;;5029703;28;20228;-63
2022/05/17 02:44:31;;;;;;;4.17;2.60;;;14.10;99.90;15.00;96965.00;;;;5029075;28;20233;-63
2022/05/17 02:47:21;;;;;;;3.57;2.60;;;14.10;99.90;15.20;96964.00;;;;5029376;28;20221;-64
2022/05/17 02:50:11;;;;;;;8.63;2.43;;;14.10;99.90;15.30;96965.00;;;;5029855;28;20201;-63
2022/05/17 02:53:00;;;;;;;2.50;2.20;;;14.20;99.90;15.20;96962.00;;;;5030064;28;20208;-63
2022/05/17 02:55:49;;;;;;;6.80;2.73;;;14.20;99.90;15.40;96969.00;;;;5029598;28;20225;-63
2022/05/17 02:58:38;;;;;;;10.77;3.17;;;14.20;99.90;15.40;96980.00;;;;5028779;28;20212;-63
2022/05/17 03:01:27;;;;;;;4.40;2.40;;;14.20;99.90;15.50;96969.00;;;;5029749;28;20205;-63
2022/05/17 03:04:17;;;;;;;2.23;2.03;;;14.20;99.90;15.50;96974.00;;;;5030033;28;20228;-63
2022/05/17 03:07:06;;;;;;;4.90;2.83;;;14.30;99.90;15.70;96968.00;;;;5030226;28;20244;-63
2022/05/17 03:09:55;;;;;;;8.63;3.07;;;14.30;99.90;15.80;96974.00;;;;5029635;28;20208;-62
2022/05/17 03:12:44;;;;;;;2.57;2.37;;;14.30;99.90;15.80;96972.00;;;;5029682;28;20213;-63
2022/05/17 03:15:33;;;;;;;3.00;2.67;;;14.40;99.90;15.70;96977.00;;;;5029484;28;20597;-63
2022/05/17 03:18:22;;;;;;;3.03;2.83;;;14.50;99.90;15.70;96989.00;;;;5025440;28;20210;-63
2022/05/17 03:21:12;;;;;;;4.57;2.73;;;14.50;99.90;15.60;96974.00;;;;5015086;28;20209;-63
2022/05/17 03:24:01;;;;;;;5.03;2.43;;;14.50;99.90;15.40;96982.00;;;;5018462;28;20225;-65
2022/05/17 03:26:51;;;;;;;6.43;2.40;;;14.50;99.90;15.50;96986.00;;;;5032922;28;20315;-64
2022/05/17 03:29:39;;;;;;;3.67;2.63;;;14.40;99.90;15.60;96987.00;;;;5007464;28;20205;-65
2022/05/17 03:32:28;;;;;;;2.73;2.27;;;14.50;99.90;15.80;96984.00;;;;5012012;28;20215;-64
2022/05/17 03:35:17;;;;;;;5.97;2.27;;;14.50;99.90;15.60;96986.00;;;;5011779;28;20743;-65
2022/05/17 03:38:07;;;;;;;5.47;2.57;;;14.50;99.90;15.20;96986.00;;;;5011738;28;20214;-64
2022/05/17 03:40:58;;;;;;;7.23;2.73;;;14.50;99.90;15.50;97001.00;;;;5011752;28;20677;-64
2022/05/17 03:43:47;;;;;;;3.33;2.43;;;14.40;99.90;15.70;96996.00;;;;5024706;28;20225;-63
2022/05/17 03:46:36;;;;;;;6.33;2.80;;;14.50;99.90;15.80;97002.00;;;;5032659;28;20228;-64
2022/05/17 03:49:27;;;;;;;6.40;2.37;;;14.50;99.90;15.80;97002.00;;;;5033446;28;20205;-64
2022/05/17 03:52:16;;;;;;;5.13;2.90;;;14.50;99.90;15.60;97009.00;;;;5032743;28;20204;-64
2022/05/17 03:55:09;;;;;;;3.43;2.43;;;14.50;99.90;15.80;97005.00;;;;5030278;28;20217;-65
2022/05/17 03:57:58;;;;;;;3.63;2.60;;;14.50;99.90;15.90;97004.00;;;;4999905;28;20208;-64
2022/05/17 04:00:47;;;;;;;4.77;2.50;;;14.60;99.90;15.90;97007.00;;;;5011811;28;20198;-65
2022/05/17 04:03:37;;;;;;;5.93;2.80;;;14.60;99.90;15.80;97004.00;;;;5010251;28;20202;-64
2022/05/17 04:06:26;;;;;;;3.27;2.80;;;14.60;99.90;15.60;97008.00;;;;4999506;28;20230;-64
2022/05/17 04:09:15;;;;;;;10.20;2.67;;;14.60;99.90;15.80;97007.00;;;;5002690;28;20225;-64
2022/05/17 04:12:07;;;;;;;2.53;2.30;;;14.60;99.90;15.70;97000.00;;;;5011598;28;20212;-64
2022/05/17 04:14:55;;;;;;;3.30;1.60;;;14.60;99.90;15.50;97012.00;;;;5001683;28;20217;-64
2022/05/17 04:17:45;;;;;;;6.83;2.57;;;14.60;99.90;15.40;97011.00;;;;5012867;28;20700;-64
2022/05/17 04:20:34;;;;;;;2.80;2.43;;;14.50;99.90;15.30;97012.00;;;;5010616;28;20222;-65
2022/05/17 04:23:23;;;;;;;4.33;2.53;;;14.50;99.90;15.50;97014.00;;;;5011895;28;20202;-64
2022/05/17 04:26:13;;;;;;;5.27;3.23;;;14.50;99.90;15.80;97013.00;;;;5010054;28;20244;-64
2022/05/17 04:29:04;;;;;;;3.03;2.20;;;14.50;99.90;15.80;97009.00;;;;5006607;28;20228;-64
2022/05/17 04:31:52;;;;;;;2.83;2.63;;;14.50;99.90;15.90;97010.00;;;;5010387;28;20205;-64
2022/05/17 04:34:41;;;;;;;3.50;2.33;;;14.60;99.90;16.00;97019.00;;;;5011173;28;20677;-63
2022/05/17 04:37:30;;;;;;;2.60;2.40;;;14.60;99.90;15.60;97011.00;;;;5010401;28;20719;-64
2022/05/17 04:40:19;;;;;;;4.93;2.70;;;14.60;99.90;15.40;97019.00;;;;5010510;28;20218;-63
2022/05/17 04:43:08;;;;;;;2.87;2.50;;;14.50;99.90;15.60;97026.00;;;;5012975;28;20206;-64
2022/05/17 04:45:59;;;;;;;5.27;2.40;;;14.50;99.90;15.60;97028.00;;;;5007512;28;20239;-64
2022/05/17 04:48:47;;;;;;;2.93;2.43;;;14.50;99.90;15.50;97022.00;;;;5025113;28;20201;-64
2022/05/17 04:51:36;;;;;;;4.40;2.63;;;14.50;99.90;15.60;97017.00;;;;5031691;28;20223;-64
2022/05/17 04:54:25;;;;;;;8.80;2.73;;;14.50;99.90;15.80;97016.00;;;;5031096;28;20206;-64
2022/05/17 04:57:14;;;;;;;4.70;2.67;;;14.60;99.90;15.80;97019.00;;;;5007884;28;20253;-63
2022/05/17 05:00:07;;;;;;;5.30;2.70;;;14.60;99.90;16.00;97024.00;;;;5009253;28;20571;-64
2022/05/17 05:02:57;;;;;;;5.80;2.17;;;14.70;99.90;15.90;97038.00;;;;5004128;28;20207;-64
2022/05/17 05:05:48;;;;;;;3.00;2.13;;;14.70;99.90;15.70;97016.00;;;;5005241;28;20378;-63
2022/05/17 05:08:37;;;;;;;4.83;2.13;;;14.70;99.90;15.30;97026.00;;;;5013061;28;20198;-63
2022/05/17 05:11:26;;;;;;;7.77;2.30;;;14.70;99.90;15.80;97017.00;;;;5001572;28;20210;-64
2022/05/17 05:14:15;;;;;;;6.90;2.67;;;14.70;99.90;16.20;97030.00;;;;5015880;28;20684;-64
2022/05/17 05:17:04;;;;;;;2.93;2.63;;;14.80;99.90;16.60;97022.00;;;;5030789;28;20606;-64
2022/05/17 05:19:54;;;;;;;4.67;2.40;;;14.90;99.90;16.30;97023.00;;;;5016968;28;20217;-63
2022/05/17 05:22:43;;;;;;;2.80;2.53;;;15.00;99.90;15.90;97008.00;;;;5000190;28;20206;-63
2022/05/17 05:25:32;;;;;;;3.77;2.10;;;15.10;99.90;16.10;97002.00;;;;5019002;28;20232;-63
2022/05/17 05:28:21;;;;;;;2.93;2.10;;;15.10;99.90;16.40;97011.00;;;;5030433;28;20217;-62
2022/05/17 05:31:10;;;;;;;3.87;2.70;;;15.20;99.90;16.50;97015.00;;;;5030866;28;20205;-63
2022/05/17 05:34:00;;;;;;;3.47;2.97;;;15.30;99.90;16.40;97014.00;;;;5014386;28;20208;-63
2022/05/17 05:36:50;;;;;;;4.20;3.20;;;15.30;99.90;16.50;97011.00;;;;5029818;28;20229;-64
2022/05/17 05:39:39;;;;;;;5.20;3.23;;;15.30;99.90;16.50;97018.00;;;;5030628;28;20201;-64
2022/05/17 05:42:28;;;;;;;4.67;3.33;;;15.40;99.90;17.00;97013.00;;;;5003634;28;20209;-64
2022/05/17 05:45:17;;;;;;;4.60;2.90;;;15.50;99.90;17.30;97021.00;;;;5009743;28;20634;-64
2022/05/17 05:48:07;;;;;;;5.07;2.93;;;15.60;99.90;17.30;97017.00;;;;5011751;28;20557;-64
2022/05/17 05:50:56;;;;;;;6.40;3.37;;;15.80;99.90;17.30;97017.00;;;;5014824;28;20209;-63
2022/05/17 05:53:46;;;;;;;4.37;3.33;;;15.90;99.90;17.50;97018.00;;;;5007827;28;20662;-63
2022/05/17 05:56:35;;;;;;;7.33;2.93;;;16.00;99.90;17.70;97017.00;;;;5006937;28;20225;-64
2022/05/17 05:59:28;;;;;;;2.60;2.27;;;16.20;99.90;17.80;97014.00;;;;5015134;28;20570;-63
2022/05/17 06:02:16;;;;;;;3.40;2.40;;;16.30;99.90;17.90;97009.00;;;;5022170;28;20193;-64
2022/05/17 06:05:07;;;;;;;4.97;2.47;;;16.40;99.90;17.70;97006.00;;;;5022728;28;20225;-64
2022/05/17 06:07:56;;;;;;;2.23;2.03;;;16.50;99.90;17.60;97014.00;;;;5029050;28;20207;-63
2022/05/17 06:10:47;;;;;;;5.83;2.70;;;16.50;99.90;17.70;97014.00;;;;5028796;28;20205;-63
2022/05/17 06:13:36;;;;;;;5.57;2.53;;;16.50;99.90;17.90;97005.00;;;;5025887;28;20202;-64
2022/05/17 06:16:25;;;;;;;6.77;3.10;;;16.60;99.90;18.20;97004.00;;;;5029376;28;20233;-63
2022/05/17 06:19:14;;;;;;;6.77;3.30;;;16.70;99.90;18.50;97008.00;;;;5001058;28;20592;-64
2022/05/17 06:22:03;;;;;;;6.70;3.30;;;16.80;99.90;18.70;97003.00;;;;4994229;28;20206;-64
2022/05/17 06:24:52;;;;;;;5.20;3.33;;;16.90;99.90;18.70;96992.00;;;;5014793;28;20201;-64
2022/05/17 06:27:45;;;;;;;5.90;3.37;;;17.10;99.90;19.00;96993.00;;;;4999062;28;20206;-64
2022/05/17 06:30:34;;;;;;;5.67;3.70;;;17.30;99.90;19.20;97007.00;;;;5010407;28;20205;-64
2022/05/17 06:33:23;;;;;;;6.87;4.23;;;17.40;99.90;19.20;96998.00;;;;5013057;28;20214;-64
2022/05/17 06:36:12;;;;;;;6.10;3.33;;;17.60;99.90;19.60;97004.00;;;;5026406;28;20221;-64
2022/05/17 06:39:01;;;;;;;5.70;4.57;;;17.70;99.90;19.90;97007.00;;;;5030036;28;20228;-64
2022/05/17 06:41:51;;;;;;;9.63;3.63;;;17.90;99.90;20.10;97002.00;;;;5030510;28;20782;-64
2022/05/17 06:44:41;;;;;;;9.07;3.87;;;18.10;99.90;20.30;97005.00;;;;5017762;28;20696;-64
2022/05/17 06:47:29;;;;;;;6.73;3.70;;;18.30;99.90;20.30;97014.00;;;;5012389;28;20222;-64
2022/05/17 06:50:19;;;;;;;6.30;3.93;;;18.50;99.90;20.40;97011.00;;;;5016252;28;20565;-64
2022/05/17 06:53:08;;;;;;;8.50;4.40;;;18.60;99.90;20.50;97012.00;;;;5003229;28;20198;-64
2022/05/17 06:55:58;;;;;;;7.23;4.73;;;18.70;99.90;20.50;97008.00;;;;5008135;28;20229;-63
2022/05/17 06:58:46;;;;;;;8.33;3.60;;;18.80;99.90;20.60;97017.00;;;;5010859;28;20201;-64
2022/05/17 07:01:36;;;;;;;8.37;3.73;;;18.90;99.90;20.20;97009.00;;;;5008873;28;20210;-63
2022/05/17 07:04:25;;;;;;;6.63;3.63;;;18.90;99.90;20.20;97018.00;;;;5009447;28;20214;-64
2022/05/17 07:07:14;;;;;;;5.57;3.60;;;18.90;99.90;20.50;97025.00;;;;4999870;28;20233;-64
2022/05/17 07:13:11;;;;;;;6.63;3.67;;;19.00;99.90;20.60;97024.00;;;;5008092;28;20240;-64
2022/05/17 07:16:00;;;;;;;4.37;3.97;;;19.10;99.90;20.50;97022.00;;;;5007776;28;20227;-64
2022/05/17 07:18:50;;;;;;;6.00;3.73;;;19.10;99.90;21.10;97022.00;;;;5003530;28;20214;-64
2022/05/17 07:21:39;;;;;;;4.63;3.10;;;19.20;99.90;21.30;97030.00;;;;5012553;28;20554;-65
2022/05/17 07:24:28;;;;;;;7.07;3.40;;;19.40;99.90;21.70;97011.00;;;;5033276;28;20198;-65
2022/05/17 07:27:17;;;;;;;10.00;5.13;;;19.60;99.90;22.00;97010.00;;;;5032758;28;20229;-65
2022/05/17 07:30:08;;;;;;;6.37;3.50;;;19.80;99.90;22.40;97019.00;;;;5034079;28;20194;-64
2022/05/17 07:32:57;;;;;;;4.87;3.70;;;20.10;99.90;22.30;97024.00;;;;5021187;28;20217;-64
2022/05/17 07:35:48;;;;;;;7.00;4.03;;;20.30;99.90;22.30;97015.00;;;;5031167;28;20232;-64
2022/05/17 07:38:37;;;;;;;4.73;3.30;;;20.40;99.90;22.80;97019.00;;;;5032178;28;20213;-64
2022/05/17 07:41:26;;;;;;;6.40;3.10;;;20.60;99.90;23.10;97011.00;;;;5033587;28;20614;-63
2022/05/17 07:44:15;;;;;;;4.77;2.70;;;20.80;99.90;23.20;97018.00;;;;5027066;28;20669;-64
2022/05/17 07:47:04;;;;;;;5.83;2.90;;;21.10;99.90;23.60;97007.00;;;;5017921;28;20716;-64
2022/05/17 07:49:53;;;;;;;3.97;2.97;;;21.30;99.90;23.70;97011.00;;;;5016906;28;20216;-64
2022/05/17 07:52:44;;;;;;;5.80;2.40;;;21.50;99.90;23.90;97015.00;;;;5014562;28;20573;-65
2022/05/17 07:55:33;;;;;;;4.83;2.30;;;21.80;99.90;23.90;97006.00;;;;5027824;28;20704;-64
2022/05/17 07:58:24;;;;;;;3.53;2.67;;;21.90;99.90;23.60;97008.00;;;;5032343;28;20208;-64
2022/05/17 08:01:13;;;;;;;5.90;2.20;;;22.00;99.90;23.70;97009.00;;;;5033142;28;20232;-64
2022/05/17 08:04:02;;;;;;;3.00;2.20;;;22.10;99.90;23.90;97003.00;;;;5033249;28;20577;-64
2022/05/17 08:06:51;;;;;;;3.43;1.80;;;22.10;99.90;24.30;97006.00;;;;5031648;28;20233;-64
2022/05/17 08:09:41;;;;;;;4.97;2.20;;;22.20;99.90;24.40;97000.00;;;;5032404;28;20194;-64
2022/05/17 08:12:30;;;;;;;4.10;2.00;;;22.40;99.90;24.60;97003.00;;;;5031700;28;20213;-64
2022/05/17 08:15:21;;;;;;;3.60;1.70;;;22.50;99.90;24.50;96999.00;;;;5031880;28;20194;-64
2022/05/17 08:18:10;;;;;;;1.57;1.47;;;22.70;99.90;24.90;97008.00;;;;5011445;28;20290;-64
2022/05/17 08:20:59;;;;;;;2.97;1.77;;;22.80;99.90;25.50;97008.00;;;;5022555;28;20204;-64
2022/05/17 08:23:50;;;;;;;5.07;1.80;;;23.00;99.90;25.50;97015.00;;;;5031697;28;20205;-64
2022/05/17 08:29:47;;;;;;;2.60;0.80;;;23.40;99.90;25.20;97009.00;;;;5031567;28;20201;-65
2022/05/17 08:35:49;;;;;;;5.03;1.30;;;23.60;97.90;25.30;97020.00;;;;5015117;28;20229;-64
2022/05/17 08:38:41;;;;;;;1.83;0.53;;;23.60;94.60;25.50;97019.00;;;;5032025;28;20197;-64
2022/05/17 08:41:55;;;;;;;4.53;0.80;;;23.70;94.80;24.30;97010.00;;;;5031899;28;20272;-63
2022/05/17 08:44:49;;;;;;;3.67;1.00;;;23.50;90.20;23.70;97017.00;;;;5024186;28;20210;-67
2022/05/17 08:47:47;;;;;;;4.77;1.10;;;23.10;90.10;24.30;97029.00;;;;5016979;28;20241;-62
2022/05/17 08:50:51;;;;;;;3.47;0.83;;;23.00;89.60;23.30;97013.00;;;;5013963;28;20240;-62
2022/05/17 08:53:41;;;;;;;2.63;0.80;;;22.80;86.40;23.40;97005.00;;;;5024257;28;20205;-65
2022/05/17 08:56:32;;;;;;;0.80;0.80;;;22.60;87.40;24.50;97013.00;;;;5032227;28;20232;-65
2022/05/17 08:59:24;;;;;;;1.20;1.10;;;22.70;86.30;25.30;97012.00;;;;5031034;28;20209;-65
2022/05/17 09:02:19;;;;;;;1.27;0.87;;;23.00;86.20;24.20;97003.00;;;;5030928;28;20688;-65
2022/05/17 09:05:21;;;;;;;1.80;0.90;;;23.20;82.40;24.30;96997.00;;;;5032214;28;20201;-64
2022/05/17 09:08:19;;;;;;;2.20;0.63;;;23.30;78.80;24.30;97019.00;;;;5030201;28;20229;-64
2022/05/17 09:11:21;;;;;;;5.97;1.10;;;23.20;79.30;23.50;97013.00;;;;5031458;28;20217;-62
2022/05/17 09:14:14;;;;;;;2.17;1.00;;;23.00;78.10;24.30;96996.00;;;;5030977;28;20587;-65
2022/05/17 09:17:11;;;;;;;1.43;0.80;;;23.00;80.20;25.50;97020.00;;;;5029977;28;20253;-64
2022/05/17 09:20:00;;;;;;;2.40;1.17;;;23.30;83.80;25.50;97023.00;;;;5014539;28;20209;-65
2022/05/17 09:22:50;;;;;;;0.73;0.73;;;23.50;82.70;24.80;97030.00;;;;5022497;28;20206;-64
2022/05/17 09:26:06;;;;;;;1.33;0.93;;;23.60;77.30;25.20;97025.00;;;;5031288;28;20221;-64
2022/05/17 09:29:02;;;;;;;1.73;0.73;;;23.60;77.90;25.00;97033.00;;;;5031612;28;20984;-64
2022/05/17 09:31:54;;;;;;;3.93;0.87;;;23.50;77.30;25.10;97030.00;;;;5025035;28;20194;-65
2022/05/17 09:34:57;;;;;;;3.07;1.00;;;23.60;76.10;25.30;97027.00;;;;5026796;28;20255;-65
2022/05/17 09:37:58;;;;;;;1.40;1.07;;;23.60;75.20;25.20;97033.00;;;;5030311;28;20213;-67
2022/05/17 09:40:51;;;;;;;9.30;1.13;;;23.70;73.30;25.40;97033.00;;;;5031564;28;20204;-65
2022/05/17 09:43:46;;;;;;;1.67;0.70;;;23.70;74.80;26.00;97027.00;;;;5030667;28;20673;-65
2022/05/17 09:46:43;;;;;;;1.00;0.77;;;23.80;76.60;26.20;97037.00;;;;5014763;28;20233;-65
2022/05/17 09:53:02;;;;;;;1.80;0.80;;;24.20;76.90;25.80;97025.00;;;;5012538;28;20573;-65
2022/05/17 09:55:58;;;;;;;1.23;0.83;;;24.30;73.20;25.40;97024.00;;;;5029081;28;20219;-66
2022/05/17 09:58:47;;;;;;;0.83;0.70;;;24.20;69.10;25.60;97033.00;;;;5030007;28;20203;-64
2022/05/17 10:01:40;;;;;;;1.27;0.97;;;24.10;72.10;25.00;97014.00;;;;5030379;28;20209;-63
2022/05/17 10:04:28;;;;;;;3.03;1.13;;;24.30;70.80;26.10;97002.00;;;;5030557;28;20590;-63
2022/05/17 10:07:20;;;;;;;1.20;0.80;;;24.10;74.40;27.00;97013.00;;;;5050838;22;20241;-69
2022/05/17 10:10:25;;;;;;;0.77;0.77;;;24.40;76.40;27.60;97013.00;;;;5030669;28;20201;-69
2022/05/17 10:13:25;;;;;;;2.93;0.60;;;24.90;75.00;25.40;97011.00;;;;5044352;28;20206;-68
2022/05/17 10:16:18;;;;;;;1.97;0.83;;;24.80;67.40;24.90;97014.00;;;;5043145;28;20251;-69
2022/05/17 10:19:20;;;;;;;1.10;0.80;;;24.40;65.20;25.40;97015.00;;;;5029538;28;20207;-70
2022/05/17 10:22:22;;;;;;;1.40;1.30;;;24.30;68.20;25.30;97034.00;;;;5037169;28;20202;-68
2022/05/17 10:25:23;;;;;;;1.00;0.50;;;24.00;67.30;24.80;97019.00;;;;5046970;28;20205;-69
2022/05/17 10:28:18;;;;;;;1.10;0.80;;;24.00;66.70;23.60;97015.00;;;;5048078;28;20219;-68
2022/05/17 10:31:17;;;;;;;1.87;1.27;;;23.40;69.10;24.60;97019.00;;;;5048512;28;20718;-70
2022/05/17 10:34:21;;;;;;;0.70;0.70;;;23.30;69.60;26.10;97025.00;;;;5032217;28;20204;-70
2022/05/17 10:37:16;;;;;;;3.07;1.13;;;23.60;73.40;25.40;97020.00;;;;5049360;28;20228;-70
2022/05/17 10:40:09;;;;;;;0.67;0.60;;;23.80;70.40;26.40;97002.00;;;;5048251;28;20204;-70
2022/05/17 10:43:00;;;;;;;0.80;0.63;;;24.00;71.60;25.70;97016.00;;;;5048833;28;20202;-70
2022/05/17 10:46:00;;;;;;;2.67;0.63;;;24.20;69.20;26.50;97004.00;;;;5032106;28;20217;-70
2022/05/17 10:48:59;;;;;;;1.17;0.90;;;24.40;70.50;27.40;96969.00;;;;5029808;28;20641;-71
2022/05/17 10:52:04;;;;;;;1.27;1.17;;;24.80;70.70;27.90;96947.00;;;;5032192;28;20692;-71
2022/05/17 10:55:05;;;;;;;3.23;0.90;;;25.30;70.40;27.00;96976.00;;;;5038869;28;20197;-71
2022/05/17 10:58:04;;;;;;;2.00;0.80;;;25.50;65.80;27.70;96990.00;;;;5048371;28;20209;-70
2022/05/17 11:01:00;;;;;;;2.40;1.00;;;25.80;64.80;28.10;96938.00;;;;5049031;28;20207;-70
2022/05/17 11:04:27;;;;;;;2.27;1.00;;;26.10;66.20;27.10;96979.00;;;;5048888;28;20197;-71
2022/05/17 11:07:32;;;;;;;1.83;0.90;;;26.20;62.30;27.10;96998.00;;;;5044412;28;20234;-71
2022/05/17 11:10:34;;;;;;;1.13;0.70;;;25.90;66.10;27.10;96997.00;;;;5029396;28;20207;-71
2022/05/17 11:13:31;;;;;;;1.67;1.57;;;25.80;66.60;25.70;96997.00;;;;5025564;28;20254;-71
2022/05/17 11:16:26;;;;;;;1.80;1.27;;;25.50;62.70;26.00;96999.00;;;;5028155;28;20229;-71
2022/05/17 11:19:23;;;;;;;4.60;1.17;;;25.00;63.30;25.20;97003.00;;;;5025785;28;20203;-71
2022/05/17 11:22:21;;;;;;;1.77;0.93;;;24.70;64.20;25.00;96991.00;;;;5048056;28;20586;-71
2022/05/17 11:25:40;;;;;;;2.97;1.00;;;24.40;64.80;26.40;97000.00;;;;5049201;28;20212;-70
2022/05/17 11:28:58;;;;;;;2.50;1.13;;;24.40;69.10;26.00;97004.00;;;;5037484;28;20223;-70
2022/05/17 11:31:56;;;;;;;1.83;1.20;;;24.50;70.10;25.20;96993.00;;;;5028692;28;20675;-70
2022/05/17 11:34:46;;;;;;;3.70;0.93;;;24.30;70.50;25.90;96990.00;;;;5031201;28;20667;-71
2022/05/17 11:37:51;;;;;;;1.30;0.90;;;24.30;67.70;25.90;96977.00;;;;5032505;28;20233;-71
2022/05/17 11:40:57;;;;;;;3.13;0.93;;;24.40;67.10;27.10;96920.00;;;;5036432;28;20206;-71
2022/05/17 11:43:52;;;;;;;5.67;1.63;;;24.80;65.50;25.80;96972.00;;;;5035129;28;20206;-71
2022/05/17 11:46:58;;;;;;;2.30;1.13;;;24.80;64.80;26.20;97009.00;;;;5031075;28;20218;-70
2022/05/17 11:49:46;;;;;;;2.73;1.17;;;24.60;63.70;26.80;96993.00;;;;5032322;28;20205;-70
2022/05/17 11:52:34;;;;;;;2.73;1.30;;;24.70;65.20;26.20;96903.00;;;;5040658;28;20208;-69
2022/05/17 11:55:29;;;;;;;2.00;0.83;;;24.80;64.60;25.00;96892.00;;;;5050988;28;20688;-69
2022/05/17 11:58:29;;;;;;;3.70;1.30;;;24.80;63.20;24.80;96975.00;;;;5051673;28;20209;-69
2022/05/17 12:01:46;;;;;;;6.53;1.27;;;24.50;65.20;24.10;96981.00;;;;5051541;28;20207;-72
2022/05/17 12:04:45;;;;;;;3.10;2.10;;;24.00;63.90;24.20;96982.00;;;;5037409;28;20224;-68
2022/05/17 12:07:33;;;;;;;1.37;0.80;;;23.70;66.50;24.50;96996.00;;;;5051289;28;20228;-70
2022/05/17 12:10:22;;;;;;;2.83;1.43;;;23.50;66.00;24.70;96990.00;;;;5052173;28;20588;-70
2022/05/17 12:13:14;;;;;;;1.73;0.70;;;23.50;66.40;23.90;96992.00;;;;5051764;28;20208;-69
2022/05/17 12:16:03;;;;;;;0.90;0.70;;;23.30;67.00;24.10;96987.00;;;;5050898;28;20606;-70
2022/05/17 12:18:58;;;;;;;1.73;1.57;;;23.20;67.20;24.90;96996.00;;;;5023722;28;20194;-70
2022/05/17 12:21:57;;;;;;;1.33;0.80;;;23.30;67.80;24.50;97000.00;;;;5027801;28;20204;-70
2022/05/17 12:25:05;;;;;;;1.00;0.70;;;23.40;67.30;24.20;96991.00;;;;5051498;28;20219;-73
2022/05/17 12:27:56;;;;;;;1.90;0.73;;;23.40;67.40;24.40;96991.00;;;;5041012;28;20229;-72
2022/05/17 12:31:00;;;;;;;1.57;0.87;;;23.30;68.10;25.20;96990.00;;;;5047277;28;20208;-71
2022/05/17 12:33:49;;;;;;;2.33;0.90;;;23.40;69.30;25.20;96985.00;;;;5031805;28;20255;-71
2022/05/17 12:36:39;;;;;;;4.00;1.30;;;23.60;69.00;24.50;96999.00;;;;5049911;28;20220;-71
2022/05/17 12:45:51;;;;;;;2.57;0.87;;;24.30;66.10;24.20;96996.00;;;;5038448;28;20761;-73
2022/05/17 12:48:46;;;;;;;1.20;0.90;;;24.10;63.20;24.90;97005.00;;;;5030975;28;20236;-72
2022/05/17 12:51:35;;;;;;;1.20;0.80;;;23.90;65.60;25.60;97003.00;;;;5044259;28;20227;-71
2022/05/17 12:54:29;;;;;;;1.27;1.03;;;23.80;67.40;24.80;96991.00;;;;5048517;28;20220;-70
2022/05/17 12:57:32;;;;;;;3.63;1.07;;;23.90;66.20;24.90;97008.00;;;;5036506;28;20712;-71
2022/05/17 13:00:29;;;;;;;2.13;0.97;;;23.80;69.00;23.90;97003.00;;;;5025566;28;20220;-73
2022/05/17 13:03:22;;;;;;;2.23;0.67;;;23.50;65.60;24.20;97008.00;;;;5049151;28;20603;-70
2022/05/17 13:06:12;;;;;;;3.60;1.17;;;23.20;66.80;24.70;97016.00;;;;5049394;28;20244;-70
2022/05/17 13:09:00;;;;;;;1.00;0.90;;;23.20;67.50;24.10;97006.00;;;;5049105;28;20228;-70